KDAN/DAN METAR and TAF weather

Enter ICAO airport designator
Station Type Date Time Source
KDAN METAR 2022/12/05 13:53 UTC NOAA

KDAN 051353Z AUTO 10SM CLR M01/M02 A3025 RMK AO2 SLP244 T10111022


Station Type Date Time Source
KDAN Decoded METAR 2022/12/05 13:53 UTC NOAA

DANVILLE REGIONAL AIRPORT, VA, United States (KDAN) 36-34N 079-20W 175M
Dec 05, 2022 - 08:53 AM EST / 2022.12.05 1353 UTC
Visibility: 10 mile(s):0
Sky conditions: clear
Temperature: 30.0 F (-1.1 C)
Dew Point: 28.0 F (-2.2 C)
Relative Humidity: 92%
Pressure (altimeter): 30.25 in. Hg (1024 hPa)
ob: KDAN 051353Z AUTO 10SM CLR M01/M02 A3025 RMK AO2 SLP244 T10111022
cycle: 14

Station Type Date Time Source
KDAN TAF 2022/12/05 12:33 UTC NOAA

TAF KDAN 051130Z 0512/0612 VRB03KT P6SM BKN250
FM051600 19004KT P6SM OVC250
FM052300 VRB03KT P6SM OVC100
FM060200 11003KT P6SM OVC050
FM060800 VRB03KT P6SM -RA OVC028

Example: see airport list